Time;durP1;ratioP1;P1;durP2;ratioP2;P2;SDS_P1;SDS_P2;PMS_P1;PMS_P2;Temp;Humidity;BMP_temperature;BMP_pressure;BME280_temperature;BME280_humidity;BME280_pressure;Samples;Min_cycle;Max_cycle;Signal;HPM_P1;HPM_P2
2022/06/10 00:01:41;;;;;;;2.90;1.48;;;;;;;;;;5008309;28;20575;-80
2022/06/10 00:04:07;;;;;;;2.47;1.40;;;;;;;;;;5010001;28;20188;-81
2022/06/10 00:06:35;;;;;;;2.50;1.45;;;;;;;;;;5009484;28;20029;-80
2022/06/10 00:09:02;;;;;;;2.97;1.52;;;;;;;;;;5002159;28;20030;-81
2022/06/10 00:11:27;;;;;;;4.55;1.50;;;;;;;;;;5013840;28;20030;-80
2022/06/10 00:13:53;;;;;;;2.40;1.30;;;;;;;;;;5024915;28;20038;-81
2022/06/10 00:16:19;;;;;;;2.72;1.63;;;;;;;;;;5012986;28;20452;-80
2022/06/10 00:18:45;;;;;;;2.35;1.38;;;;;;;;;;5022516;28;20060;-81
2022/06/10 00:21:13;;;;;;;2.55;1.35;;;;;;;;;;5009354;28;20030;-80
2022/06/10 00:23:39;;;;;;;2.80;1.40;;;;;;;;;;4995461;28;20101;-81
2022/06/10 00:26:05;;;;;;;3.03;1.60;;;;;;;;;;5012616;28;20112;-81
2022/06/10 00:28:31;;;;;;;3.38;1.60;;;;;;;;;;5002263;28;20518;-81
2022/06/10 00:30:56;;;;;;;2.67;1.30;;;;;;;;;;5027126;28;20037;-81
2022/06/10 00:33:22;;;;;;;2.75;1.40;;;;;;;;;;5025449;28;20039;-81
2022/06/10 00:35:47;;;;;;;3.25;1.58;;;;;;;;;;5039177;28;20034;-81
2022/06/10 00:38:13;;;;;;;2.70;1.38;;;;;;;;;;5027600;28;20056;-82
2022/06/10 00:40:44;;;;;;;3.97;1.45;;;;;;;;;;5003326;28;20036;-81
2022/06/10 00:43:22;;;;;;;3.22;1.50;;;;;;;;;;5016227;28;20037;-81
2022/06/10 00:46:20;;;;;;;3.90;1.50;;;;;;;;;;5006327;28;20041;-81
2022/06/10 00:49:24;;;;;;;3.58;1.60;;;;;;;;;;5015252;28;20049;-81
2022/06/10 00:51:51;;;;;;;1.95;1.10;;;;;;;;;;4949781;28;20459;-81
2022/06/10 00:54:19;;;;;;;;;;;;;;;;;;4966388;28;20043;-81
2022/06/10 00:56:48;;;;;;;2.65;1.15;;;;;;;;;;4949816;28;19933;-80
2022/06/10 00:59:20;;;;;;;2.38;1.27;;;;;;;;;;4944635;28;20420;-81
2022/06/10 01:01:46;;;;;;;3.30;1.30;;;;;;;;;;4962725;28;20074;-81
2022/06/10 01:04:12;;;;;;;2.80;1.40;;;;;;;;;;4933931;28;20038;-81
2022/06/10 01:06:38;;;;;;;4.13;1.50;;;;;;;;;;4950297;28;20047;-81
2022/06/10 01:09:04;;;;;;;3.75;1.70;;;;;;;;;;4949697;28;20054;-81
2022/06/10 01:11:49;;;;;;;3.10;1.65;;;;;;;;;;4949796;28;20062;-81
2022/06/10 01:14:51;;;;;;;2.60;1.25;;;;;;;;;;4949238;28;20503;-80
2022/06/10 01:17:32;;;;;;;2.50;1.38;;;;;;;;;;4948337;28;20053;-80
2022/06/10 01:20:16;;;;;;;2.63;1.30;;;;;;;;;;4949686;28;20038;-79
2022/06/10 01:23:02;;;;;;;3.20;1.65;;;;;;;;;;4984407;28;20412;-81
2022/06/10 01:26:01;;;;;;;2.58;1.38;;;;;;;;;;5015750;28;20040;-80
2022/06/10 01:28:42;;;;;;;3.08;1.42;;;;;;;;;;5014483;28;20401;-80
2022/06/10 01:31:38;;;;;;;3.95;1.50;;;;;;;;;;5018911;28;20117;-80
2022/06/10 01:34:19;;;;;;;3.95;1.50;;;;;;;;;;5003075;28;20042;-81
2022/06/10 01:37:26;;;;;;;2.67;1.35;;;;;;;;;;5032594;28;20048;-81
2022/06/10 01:40:00;;;;;;;2.67;1.38;;;;;;;;;;4947148;28;20046;-81
2022/06/10 01:42:39;;;;;;;2.70;1.50;;;;;;;;;;4944757;28;20089;-81
2022/06/10 01:45:14;;;;;;;2.72;1.50;;;;;;;;;;4950287;28;20050;-81
2022/06/10 01:47:51;;;;;;;2.80;1.48;;;;;;;;;;4948729;28;20411;-81
2022/06/10 01:50:22;;;;;;;2.38;1.38;;;;;;;;;;4953540;28;20070;-80
2022/06/10 01:52:55;;;;;;;2.72;1.50;;;;;;;;;;4942067;28;20049;-81
2022/06/10 01:55:45;;;;;;;2.80;1.55;;;;;;;;;;4953106;28;20127;-81
2022/06/10 01:58:19;;;;;;;2.45;1.45;;;;;;;;;;4933863;28;20041;-81
2022/06/10 02:00:46;;;;;;;3.05;1.60;;;;;;;;;;4956254;28;20533;-80
2022/06/10 02:03:15;;;;;;;2.35;1.20;;;;;;;;;;4938838;28;20075;-80
2022/06/10 02:05:48;;;;;;;4.20;1.70;;;;;;;;;;4971753;28;20427;-81
2022/06/10 02:08:18;;;;;;;2.50;1.30;;;;;;;;;;4957647;28;20042;-81
2022/06/10 02:10:53;;;;;;;2.58;1.58;;;;;;;;;;4996062;28;20520;-81
2022/06/10 02:13:22;;;;;;;3.72;1.50;;;;;;;;;;4998656;28;20139;-81
2022/06/10 02:15:52;;;;;;;2.88;1.45;;;;;;;;;;5021373;28;20524;-81
2022/06/10 02:18:24;;;;;;;2.95;1.63;;;;;;;;;;5005312;28;20033;-81
2022/06/10 02:20:57;;;;;;;5.28;1.65;;;;;;;;;;5003152;28;20489;-81
2022/06/10 02:23:28;;;;;;;2.88;1.60;;;;;;;;;;4992347;28;20033;-81
2022/06/10 02:25:56;;;;;;;2.80;1.63;;;;;;;;;;5014554;28;20085;-81
2022/06/10 02:28:24;;;;;;;;;;;;;;;;;;5009622;28;20381;-81
2022/06/10 02:30:54;;;;;;;3.55;1.40;;;;;;;;;;5017003;28;19988;-81
2022/06/10 02:33:20;;;;;;;2.78;1.48;;;;;;;;;;5003146;28;20064;-81
2022/06/10 02:36:07;;;;;;;3.00;1.80;;;;;;;;;;5012866;28;20489;-82
2022/06/10 02:38:41;;;;;;;2.67;1.52;;;;;;;;;;5037813;28;20030;-81
2022/06/10 02:41:25;;;;;;;2.60;1.50;;;;;;;;;;5005246;28;20094;-81
2022/06/10 02:43:57;;;;;;;9.25;1.80;;;;;;;;;;5002599;28;20061;-81
2022/06/10 02:46:36;;;;;;;3.42;1.50;;;;;;;;;;5035205;28;20032;-81
2022/06/10 02:49:12;;;;;;;2.90;1.45;;;;;;;;;;5005864;28;20189;-81
2022/06/10 02:51:38;;;;;;;3.33;1.92;;;;;;;;;;5002294;28;20108;-81
2022/06/10 02:54:08;;;;;;;2.97;1.88;;;;;;;;;;5005375;28;20041;-81
2022/06/10 02:56:33;;;;;;;2.90;1.70;;;;;;;;;;5025187;28;20502;-81
2022/06/10 03:02:15;;;;;;;2.85;1.67;;;;;;;;;;5018469;28;20036;-83
2022/06/10 03:04:49;;;;;;;4.07;1.65;;;;;;;;;;5028087;28;20041;-83
2022/06/10 03:07:49;;;;;;;4.70;2.20;;;;;;;;;;5010163;28;20470;-82
2022/06/10 03:10:20;;;;;;;3.05;1.77;;;;;;;;;;5013846;28;20489;-83
2022/06/10 03:13:09;;;;;;;3.03;1.52;;;;;;;;;;5000207;28;20509;-83
2022/06/10 03:15:42;;;;;;;2.30;1.30;;;;;;;;;;5012437;28;20081;-83
2022/06/10 03:18:13;;;;;;;2.95;1.55;;;;;;;;;;5019935;28;20685;-82
2022/06/10 03:20:52;;;;;;;3.83;1.63;;;;;;;;;;5017394;28;20037;-85
2022/06/10 03:23:52;;;;;;;5.20;2.00;;;;;;;;;;5003309;28;20037;-85
2022/06/10 03:26:40;;;;;;;3.00;1.45;;;;;;;;;;4990857;28;20483;-85
2022/06/10 03:29:32;;;;;;;4.40;1.80;;;;;;;;;;5013515;28;20065;-85
2022/06/10 03:32:06;;;;;;;2.60;1.52;;;;;;;;;;5030619;28;20025;-85
2022/06/10 03:34:37;;;;;;;3.70;1.70;;;;;;;;;;5000631;28;20065;-86
2022/06/10 03:37:03;;;;;;;2.85;1.50;;;;;;;;;;5001858;28;20041;-87
2022/06/10 03:39:29;;;;;;;3.50;1.85;;;;;;;;;;5004677;28;20030;-87
2022/06/10 03:42:04;;;;;;;2.92;1.63;;;;;;;;;;5016446;28;20048;-87
2022/06/10 03:44:30;;;;;;;4.53;1.70;;;;;;;;;;5012320;28;20037;-87
2022/06/10 03:46:57;;;;;;;3.78;1.70;;;;;;;;;;5015436;28;20033;-87
2022/06/10 03:49:28;;;;;;;2.60;1.40;;;;;;;;;;5014907;28;20417;-87
2022/06/10 03:51:53;;;;;;;3.13;1.65;;;;;;;;;;5018987;28;20620;-87
2022/06/10 03:54:19;;;;;;;5.05;1.85;;;;;;;;;;5015546;28;20041;-87
2022/06/10 03:56:45;;;;;;;11.27;1.98;;;;;;;;;;5017555;28;20037;-87
2022/06/10 03:59:11;;;;;;;3.72;1.60;;;;;;;;;;5009885;28;20033;-88
2022/06/10 04:01:36;;;;;;;7.10;2.00;;;;;;;;;;5006159;28;20033;-87
2022/06/10 04:04:05;;;;;;;3.58;1.67;;;;;;;;;;5008505;28;20042;-88
2022/06/10 04:06:31;;;;;;;3.00;1.50;;;;;;;;;;5008951;28;20504;-88
2022/06/10 04:08:57;;;;;;;3.90;1.60;;;;;;;;;;5024532;28;20077;-88
2022/06/10 04:11:22;;;;;;;3.65;1.63;;;;;;;;;;5019163;28;20061;-87
2022/06/10 04:13:47;;;;;;;3.17;1.42;;;;;;;;;;5013271;28;20041;-88
2022/06/10 04:16:13;;;;;;;5.10;1.85;;;;;;;;;;5021745;28;20451;-88
2022/06/10 04:18:39;;;;;;;3.20;1.77;;;;;;;;;;5015359;28;20038;-88
2022/06/10 04:21:05;;;;;;;7.05;1.90;;;;;;;;;;5016097;28;20951;-88
2022/06/10 04:23:30;;;;;;;3.33;1.60;;;;;;;;;;5012337;28;20163;-88
2022/06/10 04:25:56;;;;;;;3.03;1.60;;;;;;;;;;5008727;28;20061;-86
2022/06/10 04:28:21;;;;;;;4.18;1.65;;;;;;;;;;5008932;28;20551;-89
2022/06/10 04:30:49;;;;;;;2.65;1.35;;;;;;;;;;5019795;28;20037;-80
2022/06/10 04:33:15;;;;;;;3.30;1.67;;;;;;;;;;5016273;28;20044;-81
2022/06/10 04:35:42;;;;;;;3.53;1.48;;;;;;;;;;5012902;28;20389;-81
2022/06/10 04:38:07;;;;;;;6.28;1.88;;;;;;;;;;5018135;28;20445;-81
2022/06/10 04:40:35;;;;;;;5.32;1.88;;;;;;;;;;5010677;28;20155;-81
2022/06/10 04:43:01;;;;;;;3.35;1.48;;;;;;;;;;5000458;28;20041;-81
2022/06/10 04:45:31;;;;;;;3.97;1.55;;;;;;;;;;5000444;28;20034;-82
2022/06/10 04:47:58;;;;;;;3.58;1.77;;;;;;;;;;5008523;28;20049;-81
2022/06/10 04:50:25;;;;;;;6.30;2.00;;;;;;;;;;5007769;28;20038;-81
2022/06/10 04:52:51;;;;;;;3.53;1.48;;;;;;;;;;5022942;28;20056;-81
2022/06/10 04:55:17;;;;;;;4.07;1.30;;;;;;;;;;4999445;28;20033;-81
2022/06/10 04:57:42;;;;;;;3.90;1.75;;;;;;;;;;5024718;28;20482;-81
2022/06/10 05:00:12;;;;;;;4.43;1.48;;;;;;;;;;5012293;28;20490;-81
2022/06/10 05:02:39;;;;;;;2.95;1.38;;;;;;;;;;5013731;28;20038;-81
2022/06/10 05:05:07;;;;;;;3.03;1.20;;;;;;;;;;5000734;28;20580;-80
2022/06/10 05:07:32;;;;;;;5.95;1.60;;;;;;;;;;5003997;28;20210;-81
2022/06/10 05:09:57;;;;;;;3.42;1.10;;;;;;;;;;5017078;28;20725;-82
2022/06/10 05:12:23;;;;;;;3.95;1.20;;;;;;;;;;5024329;28;20030;-86
2022/06/10 05:14:48;;;;;;;2.97;1.10;;;;;;;;;;4999248;28;20117;-86
2022/06/10 05:17:16;;;;;;;4.78;1.35;;;;;;;;;;5018573;28;20037;-87
2022/06/10 05:19:42;;;;;;;2.63;1.05;;;;;;;;;;5011640;28;20113;-87
2022/06/10 05:22:07;;;;;;;3.60;1.08;;;;;;;;;;5003009;28;20121;-86
2022/06/10 05:24:33;;;;;;;1.88;0.93;;;;;;;;;;5020555;28;20034;-82
2022/06/10 05:26:59;;;;;;;3.28;1.00;;;;;;;;;;5028979;28;20033;-82
2022/06/10 05:29:25;;;;;;;3.38;0.93;;;;;;;;;;5011253;28;20037;-82
2022/06/10 05:31:50;;;;;;;2.13;1.00;;;;;;;;;;5025731;28;20313;-82
2022/06/10 05:36:59;;;;;;;1.50;0.70;;;;;;;;;;5022286;28;20389;-86
2022/06/10 05:39:25;;;;;;;2.03;0.73;;;;;;;;;;5020902;28;20028;-79
2022/06/10 05:42:10;;;;;;;2.72;1.00;;;;;;;;;;5009214;28;20491;-79
2022/06/10 05:44:42;;;;;;;4.10;0.85;;;;;;;;;;4959891;28;20114;-80
2022/06/10 05:47:10;;;;;;;3.00;0.80;;;;;;;;;;4963445;28;20038;-80
2022/06/10 05:49:37;;;;;;;1.83;0.80;;;;;;;;;;4940445;28;20051;-80
2022/06/10 05:52:06;;;;;;;2.83;0.80;;;;;;;;;;4946829;28;20039;-79
2022/06/10 05:54:32;;;;;;;2.58;0.82;;;;;;;;;;4947143;28;20133;-80
2022/06/10 05:56:57;;;;;;;1.25;0.50;;;;;;;;;;4930921;28;20645;-80
2022/06/10 05:59:22;;;;;;;4.43;0.70;;;;;;;;;;4932444;28;20498;-82
2022/06/10 06:01:48;;;;;;;2.90;0.75;;;;;;;;;;4931539;28;20443;-82
2022/06/10 06:04:13;;;;;;;4.32;0.88;;;;;;;;;;4951593;28;20517;-81
2022/06/10 06:06:40;;;;;;;2.25;0.70;;;;;;;;;;4964480;28;20039;-81
2022/06/10 06:09:05;;;;;;;2.00;0.87;;;;;;;;;;4948671;28;20074;-82
2022/06/10 06:11:31;;;;;;;3.45;0.90;;;;;;;;;;4948760;28;20568;-80
2022/06/10 06:13:58;;;;;;;2.78;0.60;;;;;;;;;;4965519;28;20130;-81
2022/06/10 06:16:24;;;;;;;2.03;0.70;;;;;;;;;;4948730;28;20806;-81
2022/06/10 06:18:52;;;;;;;1.63;0.65;;;;;;;;;;4965622;28;20042;-82
2022/06/10 06:21:18;;;;;;;2.97;0.60;;;;;;;;;;4955057;28;20034;-82
2022/06/10 06:23:44;;;;;;;2.67;0.65;;;;;;;;;;5011127;28;20095;-82
2022/06/10 06:26:13;;;;;;;3.20;0.73;;;;;;;;;;5017882;28;20034;-81
2022/06/10 06:28:39;;;;;;;1.13;0.40;;;;;;;;;;5022986;28;20069;-81
2022/06/10 06:31:04;;;;;;;3.17;0.70;;;;;;;;;;5018311;28;20184;-82
2022/06/10 06:33:29;;;;;;;5.45;0.65;;;;;;;;;;5012737;28;20034;-82
2022/06/10 06:35:55;;;;;;;3.40;0.68;;;;;;;;;;5021578;28;20029;-82
2022/06/10 06:38:21;;;;;;;2.42;0.85;;;;;;;;;;4998122;28;20165;-82
2022/06/10 06:40:47;;;;;;;3.15;0.77;;;;;;;;;;5001902;28;20053;-82
2022/06/10 06:43:13;;;;;;;2.17;0.65;;;;;;;;;;5009236;28;20397;-81
2022/06/10 06:45:40;;;;;;;3.28;0.70;;;;;;;;;;5019642;28;20128;-81
2022/06/10 06:48:10;;;;;;;3.65;0.80;;;;;;;;;;5001597;28;20042;-81
2022/06/10 06:50:41;;;;;;;3.25;0.73;;;;;;;;;;5010642;28;20771;-82
2022/06/10 06:53:06;;;;;;;3.65;0.90;;;;;;;;;;5011022;28;20037;-82
2022/06/10 06:55:33;;;;;;;1.85;0.63;;;;;;;;;;5025113;28;20044;-81
2022/06/10 06:57:58;;;;;;;3.87;0.83;;;;;;;;;;5006919;28;20497;-82
2022/06/10 07:00:27;;;;;;;4.25;0.93;;;;;;;;;;5002573;28;20044;-81
2022/06/10 07:02:52;;;;;;;4.82;1.00;;;;;;;;;;5012066;28;20045;-81
2022/06/10 07:05:18;;;;;;;2.92;0.90;;;;;;;;;;5016322;28;20029;-81
2022/06/10 07:07:44;;;;;;;4.40;0.70;;;;;;;;;;5029091;28;20029;-81
2022/06/10 07:10:12;;;;;;;4.93;0.80;;;;;;;;;;5017889;28;20038;-82
2022/06/10 07:12:40;;;;;;;2.33;0.80;;;;;;;;;;5004392;28;20033;-82
2022/06/10 07:15:06;;;;;;;5.60;0.90;;;;;;;;;;5018395;28;20068;-81
2022/06/10 07:17:32;;;;;;;4.53;0.82;;;;;;;;;;5017297;28;20029;-81
2022/06/10 07:19:59;;;;;;;3.15;0.57;;;;;;;;;;5001141;28;20046;-83
2022/06/10 07:22:26;;;;;;;2.42;0.60;;;;;;;;;;5018176;28;20108;-82
2022/06/10 07:24:53;;;;;;;5.17;0.77;;;;;;;;;;5000765;28;20057;-82
2022/06/10 07:27:19;;;;;;;2.70;0.60;;;;;;;;;;5030372;28;20287;-82
2022/06/10 07:29:44;;;;;;;3.75;0.80;;;;;;;;;;5020588;28;20283;-82
2022/06/10 07:32:09;;;;;;;4.95;1.10;;;;;;;;;;5023375;28;20029;-82
2022/06/10 07:34:35;;;;;;;2.50;0.60;;;;;;;;;;5026513;28;20072;-80
2022/06/10 07:37:00;;;;;;;3.67;0.80;;;;;;;;;;5005307;28;20049;-80
2022/06/10 07:39:26;;;;;;;10.52;1.23;;;;;;;;;;5010376;28;20488;-82
2022/06/10 07:41:57;;;;;;;5.32;0.75;;;;;;;;;;5007434;28;20040;-81
2022/06/10 07:44:24;;;;;;;3.15;0.90;;;;;;;;;;5014686;28;20531;-82
2022/06/10 07:47:01;;;;;;;3.55;0.63;;;;;;;;;;5010282;28;20116;-83
2022/06/10 07:49:27;;;;;;;2.22;0.60;;;;;;;;;;5008022;28;20064;-83
2022/06/10 07:51:52;;;;;;;4.00;0.63;;;;;;;;;;5019053;28;20068;-82
2022/06/10 07:54:18;;;;;;;3.67;0.90;;;;;;;;;;5013454;28;20452;-83
2022/06/10 07:56:43;;;;;;;6.05;1.10;;;;;;;;;;5010645;28;20040;-82
2022/06/10 07:59:09;;;;;;;5.07;1.17;;;;;;;;;;5021145;28;20030;-83
2022/06/10 08:01:35;;;;;;;7.93;1.00;;;;;;;;;;5024802;28;20049;-81
2022/06/10 08:04:02;;;;;;;3.20;1.00;;;;;;;;;;5003371;28;20056;-82
2022/06/10 08:06:30;;;;;;;5.07;0.70;;;;;;;;;;5019356;28;20503;-81
2022/06/10 08:08:56;;;;;;;5.13;0.90;;;;;;;;;;5021756;28;20504;-82
2022/06/10 08:11:26;;;;;;;6.72;0.90;;;;;;;;;;5015144;28;20030;-83
2022/06/10 08:13:52;;;;;;;5.05;0.90;;;;;;;;;;5009306;28;20591;-81
2022/06/10 08:16:22;;;;;;;5.38;0.85;;;;;;;;;;5007060;28;20033;-82
2022/06/10 08:18:48;;;;;;;5.55;0.80;;;;;;;;;;5027804;28;20468;-83
2022/06/10 08:23:57;;;;;;;4.50;1.00;;;;;;;;;;5028189;28;20118;-82
2022/06/10 08:26:24;;;;;;;4.70;0.80;;;;;;;;;;5042270;28;20477;-83
2022/06/10 08:28:50;;;;;;;2.90;0.55;;;;;;;;;;5021910;28;20496;-81
2022/06/10 08:31:15;;;;;;;5.93;1.15;;;;;;;;;;5016306;28;20048;-84
2022/06/10 08:33:41;;;;;;;4.90;0.70;;;;;;;;;;5031418;28;20370;-82
2022/06/10 08:36:07;;;;;;;3.58;0.60;;;;;;;;;;5023323;28;20503;-83
2022/06/10 08:38:34;;;;;;;3.72;0.60;;;;;;;;;;5022737;28;20060;-82
2022/06/10 08:40:59;;;;;;;2.65;0.55;;;;;;;;;;5018126;28;20554;-80
2022/06/10 08:43:43;;;;;;;3.92;0.70;;;;;;;;;;5037634;28;20124;-82
2022/06/10 08:46:27;;;;;;;4.40;1.00;;;;;;;;;;5035013;28;20374;-83
2022/06/10 08:49:24;;;;;;;1.85;0.50;;;;;;;;;;5028449;28;20045;-83
2022/06/10 08:52:18;;;;;;;3.45;0.60;;;;;;;;;;5019474;28;20045;-82
2022/06/10 08:55:21;;;;;;;5.55;0.80;;;;;;;;;;5038516;28;20045;-82
2022/06/10 08:57:47;;;;;;;5.13;1.27;;;;;;;;;;5037173;28;20034;-82
2022/06/10 09:00:19;;;;;;;3.28;0.80;;;;;;;;;;5028896;28;20120;-82
2022/06/10 09:02:54;;;;;;;3.63;0.80;;;;;;;;;;5022805;28;20044;-82
2022/06/10 09:05:30;;;;;;;5.57;0.70;;;;;;;;;;5020006;28;20041;-82
2022/06/10 09:07:58;;;;;;;3.83;0.47;;;;;;;;;;5014250;28;20033;-83
2022/06/10 09:10:23;;;;;;;4.22;0.70;;;;;;;;;;5010581;28;20388;-82
2022/06/10 09:13:11;;;;;;;3.15;0.60;;;;;;;;;;5040013;28;20038;-82
2022/06/10 09:16:04;;;;;;;4.82;0.75;;;;;;;;;;5044656;28;20029;-82
2022/06/10 09:18:56;;;;;;;3.70;0.77;;;;;;;;;;5002954;28;20025;-82
2022/06/10 09:21:34;;;;;;;3.85;0.63;;;;;;;;;;5019425;28;20557;-82
2022/06/10 09:24:07;;;;;;;3.63;0.60;;;;;;;;;;5003085;28;20488;-82
2022/06/10 09:26:42;;;;;;;2.40;0.60;;;;;;;;;;5009098;28;20029;-83
2022/06/10 09:29:10;;;;;;;4.93;0.75;;;;;;;;;;5026910;28;20033;-83
2022/06/10 09:31:37;;;;;;;4.85;0.55;;;;;;;;;;5021585;28;20041;-82
2022/06/10 09:34:07;;;;;;;3.08;0.70;;;;;;;;;;5009499;28;20513;-84
2022/06/10 09:36:54;;;;;;;3.25;0.63;;;;;;;;;;5020065;28;20427;-85
2022/06/10 09:42:41;;;;;;;1.88;0.50;;;;;;;;;;5019172;28;20040;-83
2022/06/10 09:45:14;;;;;;;3.83;0.75;;;;;;;;;;5020228;28;20489;-84
2022/06/10 09:47:55;;;;;;;3.50;0.52;;;;;;;;;;5018877;28;20388;-82
2022/06/10 09:50:43;;;;;;;2.88;0.60;;;;;;;;;;5027203;28;20129;-84
2022/06/10 09:53:17;;;;;;;4.90;0.70;;;;;;;;;;5020323;28;20049;-84
2022/06/10 09:55:56;;;;;;;2.35;0.50;;;;;;;;;;5026868;28;20143;-82
2022/06/10 09:58:48;;;;;;;2.80;0.52;;;;;;;;;;5039495;28;20453;-83
2022/06/10 10:01:32;;;;;;;6.18;0.93;;;;;;;;;;5037332;28;20531;-83
2022/06/10 10:04:25;;;;;;;2.78;0.70;;;;;;;;;;5020683;28;20101;-83
2022/06/10 10:07:04;;;;;;;3.58;0.73;;;;;;;;;;5020988;28;20057;-83
2022/06/10 10:09:47;;;;;;;3.30;0.60;;;;;;;;;;5017620;28;20038;-83
2022/06/10 10:12:18;;;;;;;2.97;0.50;;;;;;;;;;5035508;28;20392;-84
2022/06/10 10:15:09;;;;;;;2.88;0.73;;;;;;;;;;5029597;28;20038;-84
2022/06/10 10:18:15;;;;;;;5.18;0.68;;;;;;;;;;4966123;28;20032;-86
2022/06/10 10:21:04;;;;;;;4.18;0.82;;;;;;;;;;5005046;28;20152;-84
2022/06/10 10:23:32;;;;;;;1.85;0.47;;;;;;;;;;5013444;28;20049;-84
2022/06/10 10:25:58;;;;;;;3.00;0.70;;;;;;;;;;5036926;28;20032;-84
2022/06/10 10:28:26;;;;;;;3.00;0.83;;;;;;;;;;4994352;28;20041;-84
2022/06/10 10:31:15;;;;;;;2.70;0.40;;;;;;;;;;4990726;28;20501;-82
2022/06/10 10:33:41;;;;;;;2.53;0.40;;;;;;;;;;5018038;28;20044;-84
2022/06/10 10:36:32;;;;;;;1.30;0.33;;;;;;;;;;5012233;28;20033;-83
2022/06/10 10:38:59;;;;;;;5.32;1.00;;;;;;;;;;5038789;28;20388;-83
2022/06/10 10:41:37;;;;;;;7.78;0.90;;;;;;;;;;5027138;28;20030;-82
2022/06/10 10:44:25;;;;;;;4.30;0.68;;;;;;;;;;5021187;28;20045;-83
2022/06/10 10:47:09;;;;;;;3.78;0.65;;;;;;;;;;5018764;28;20504;-83
2022/06/10 10:49:46;;;;;;;1.90;0.43;;;;;;;;;;5018353;28;20044;-83
2022/06/10 10:52:16;;;;;;;3.10;0.70;;;;;;;;;;5005462;28;20044;-85
2022/06/10 10:54:43;;;;;;;1.88;0.30;;;;;;;;;;5020169;28;20032;-83
2022/06/10 10:57:21;;;;;;;3.80;0.60;;;;;;;;;;5014151;28;20037;-84
2022/06/10 10:59:54;;;;;;;3.60;0.50;;;;;;;;;;5023038;28;20454;-84
2022/06/10 11:02:56;;;;;;;1.95;0.55;;;;;;;;;;5008039;28;20534;-85
2022/06/10 11:05:26;;;;;;;2.75;0.40;;;;;;;;;;4978932;28;20449;-83
2022/06/10 11:08:12;;;;;;;3.33;0.60;;;;;;;;;;5044995;28;20124;-83
2022/06/10 11:11:04;;;;;;;3.65;0.43;;;;;;;;;;5023663;28;20421;-83
2022/06/10 11:13:42;;;;;;;3.05;0.40;;;;;;;;;;5032873;28;20033;-81
2022/06/10 11:16:40;;;;;;;2.92;0.45;;;;;;;;;;5035869;28;20108;-81
2022/06/10 11:19:13;;;;;;;5.03;0.40;;;;;;;;;;4971091;28;20530;-82
2022/06/10 11:22:01;;;;;;;5.13;0.40;;;;;;;;;;4963374;28;20070;-82
2022/06/10 11:24:37;;;;;;;3.95;0.35;;;;;;;;;;4947963;28;20046;-83
2022/06/10 11:27:17;;;;;;;3.75;0.50;;;;;;;;;;4957941;28;20050;-82
2022/06/10 11:29:43;;;;;;;4.78;1.05;;;;;;;;;;4972249;28;20039;-82
2022/06/10 11:32:22;;;;;;;3.90;0.65;;;;;;;;;;4976506;28;20041;-82
2022/06/10 11:34:55;;;;;;;3.00;0.50;;;;;;;;;;4973537;28;20035;-83
2022/06/10 11:37:38;;;;;;;3.08;0.60;;;;;;;;;;4972715;28;20502;-83
2022/06/10 11:40:11;;;;;;;3.65;0.40;;;;;;;;;;4973746;28;20050;-83
2022/06/10 11:42:44;;;;;;;4.03;0.52;;;;;;;;;;4965991;28;20096;-83
2022/06/10 11:46:01;;;;;;;2.83;0.50;;;;;;;;;;4975617;28;20042;-84
2022/06/10 11:48:30;;;;;;;2.60;0.43;;;;;;;;;;4880304;29;20210;-83
2022/06/10 11:50:59;;;;;;;1.77;0.22;;;;;;;;;;4964804;28;20043;-82
2022/06/10 11:53:45;;;;;;;1.98;0.38;;;;;;;;;;4969562;28;20034;-83
2022/06/10 12:02:01;;;;;;;1.90;0.55;;;;;;;;;;5026365;28;20075;-82
2022/06/10 12:04:32;;;;;;;2.55;0.47;;;;;;;;;;5017060;28;20047;-82
2022/06/10 12:07:02;;;;;;;1.55;0.32;;;;;;;;;;5014165;28;20549;-82
2022/06/10 12:09:31;;;;;;;3.75;0.70;;;;;;;;;;5029426;28;20120;-83
2022/06/10 12:12:02;;;;;;;4.32;1.30;;;;;;;;;;5022168;28;20041;-83
2022/06/10 12:14:45;;;;;;;2.50;0.50;;;;;;;;;;5023364;28;20056;-83
2022/06/10 12:17:41;;;;;;;3.40;1.02;;;;;;;;;;5025563;28;20432;-84
2022/06/10 12:20:10;;;;;;;2.63;0.50;;;;;;;;;;4993427;28;20095;-83
2022/06/10 12:22:36;;;;;;;1.98;0.40;;;;;;;;;;4997471;28;20041;-83
2022/06/10 12:25:15;;;;;;;5.10;0.80;;;;;;;;;;5018499;28;20512;-80
2022/06/10 12:27:57;;;;;;;3.67;0.70;;;;;;;;;;5028028;28;20029;-81
2022/06/10 12:30:53;;;;;;;4.07;0.60;;;;;;;;;;5018811;28;20063;-81
2022/06/10 12:33:21;;;;;;;2.15;0.50;;;;;;;;;;4928737;29;20162;-80
2022/06/10 12:35:46;;;;;;;;;;;;;;;;;;4914722;28;20050;-80
2022/06/10 12:38:20;;;;;;;3.77;0.70;;;;;;;;;;4931146;28;19954;-79
2022/06/10 12:40:57;;;;;;;3.15;0.68;;;;;;;;;;4940035;28;20286;-81
2022/06/10 12:43:29;;;;;;;5.20;0.68;;;;;;;;;;4927130;28;20039;-81
2022/06/10 12:46:01;;;;;;;2.22;0.50;;;;;;;;;;4910877;28;20040;-80
2022/06/10 12:48:32;;;;;;;3.15;0.80;;;;;;;;;;4930425;28;20117;-80
2022/06/10 12:51:04;;;;;;;2.67;0.60;;;;;;;;;;4926611;29;20818;-79
2022/06/10 12:53:46;;;;;;;8.40;0.98;;;;;;;;;;4908392;28;20035;-80
2022/06/10 12:56:25;;;;;;;3.97;0.50;;;;;;;;;;4928332;28;20059;-81
2022/06/10 12:59:12;;;;;;;3.58;0.70;;;;;;;;;;4927881;28;20126;-80
2022/06/10 13:01:37;;;;;;;2.40;0.40;;;;;;;;;;4922444;28;20042;-80
2022/06/10 13:04:14;;;;;;;2.47;0.70;;;;;;;;;;4924443;28;20043;-80
2022/06/10 13:06:45;;;;;;;4.07;1.38;;;;;;;;;;4926140;29;20949;-80
2022/06/10 13:09:10;;;;;;;4.72;1.02;;;;;;;;;;4923983;28;20042;-80
2022/06/10 13:11:55;;;;;;;2.83;0.50;;;;;;;;;;5023089;28;20769;-81
2022/06/10 13:14:28;;;;;;;4.63;0.50;;;;;;;;;;5012675;28;20167;-79
2022/06/10 13:16:59;;;;;;;2.50;0.95;;;;;;;;;;5013106;28;20046;-81
2022/06/10 13:19:36;;;;;;;2.78;0.60;;;;;;;;;;5017452;28;20424;-80
2022/06/10 13:22:17;;;;;;;2.50;0.60;;;;;;;;;;5016209;28;20401;-81
2022/06/10 13:25:02;;;;;;;6.68;0.70;;;;;;;;;;5017087;28;20369;-80
2022/06/10 13:27:32;;;;;;;2.47;0.47;;;;;;;;;;5016569;28;20115;-80
2022/06/10 13:30:22;;;;;;;5.38;0.55;;;;;;;;;;4998764;28;20065;-81
2022/06/10 13:32:56;;;;;;;4.40;1.00;;;;;;;;;;4984743;28;20037;-82
2022/06/10 13:35:37;;;;;;;2.38;0.55;;;;;;;;;;4997065;28;20066;-80
2022/06/10 13:38:09;;;;;;;1.60;0.43;;;;;;;;;;5000458;28;20040;-81
2022/06/10 13:40:37;;;;;;;1.85;0.40;;;;;;;;;;5011284;28;20064;-79
2022/06/10 13:43:03;;;;;;;1.52;0.43;;;;;;;;;;5019323;28;20107;-80
2022/06/10 13:45:34;;;;;;;3.03;0.50;;;;;;;;;;4999364;28;20818;-79
2022/06/10 13:48:15;;;;;;;1.85;0.40;;;;;;;;;;4993310;28;20045;-80
2022/06/10 13:53:44;;;;;;;2.65;0.60;;;;;;;;;;5015606;28;20061;-80
2022/06/10 13:56:14;;;;;;;2.38;0.50;;;;;;;;;;5004429;28;20065;-79
2022/06/10 13:58:45;;;;;;;4.57;0.45;;;;;;;;;;5001442;28;20037;-82
2022/06/10 14:01:44;;;;;;;5.10;0.60;;;;;;;;;;4996766;28;20088;-83
2022/06/10 14:04:23;;;;;;;7.47;1.10;;;;;;;;;;5016927;28;20045;-84
2022/06/10 14:06:52;;;;;;;2.58;0.73;;;;;;;;;;5001828;28;20044;-85
2022/06/10 14:09:20;;;;;;;2.22;0.60;;;;;;;;;;5006753;28;20034;-84
2022/06/10 14:12:07;;;;;;;3.10;0.60;;;;;;;;;;5019007;28;20128;-84
2022/06/10 14:14:34;;;;;;;1.95;0.63;;;;;;;;;;5017145;28;20048;-84
2022/06/10 14:17:08;;;;;;;1.92;0.60;;;;;;;;;;5007972;28;20044;-85
2022/06/10 14:19:39;;;;;;;2.35;0.40;;;;;;;;;;5001710;28;20449;-83
2022/06/10 14:22:29;;;;;;;6.93;0.82;;;;;;;;;;5007081;28;20432;-85
2022/06/10 14:25:19;;;;;;;4.68;0.70;;;;;;;;;;4948228;28;20118;-86
2022/06/10 14:27:56;;;;;;;3.03;0.75;;;;;;;;;;4947622;28;20046;-84
2022/06/10 14:30:42;;;;;;;4.03;0.50;;;;;;;;;;4948448;28;20512;-85
2022/06/10 14:33:30;;;;;;;4.60;0.65;;;;;;;;;;4941316;28;20042;-85
2022/06/10 14:36:20;;;;;;;2.80;0.52;;;;;;;;;;4942401;28;20047;-84
2022/06/10 14:39:04;;;;;;;4.22;0.75;;;;;;;;;;4958105;28;20940;-84
2022/06/10 14:41:29;;;;;;;2.60;0.52;;;;;;;;;;4967066;28;20034;-82
2022/06/10 14:44:00;;;;;;;3.70;0.70;;;;;;;;;;4969369;28;20068;-83
2022/06/10 14:46:26;;;;;;;3.30;0.68;;;;;;;;;;4984036;28;20035;-84
2022/06/10 14:48:52;;;;;;;4.07;0.60;;;;;;;;;;4967854;28;20460;-82
2022/06/10 14:51:28;;;;;;;2.55;0.65;;;;;;;;;;4949917;28;21014;-83
2022/06/10 14:54:10;;;;;;;2.78;0.60;;;;;;;;;;4951797;28;20038;-83
2022/06/10 14:56:39;;;;;;;3.17;0.80;;;;;;;;;;4968607;28;20509;-83
2022/06/10 14:59:26;;;;;;;2.55;0.70;;;;;;;;;;4952374;28;20108;-82
2022/06/10 15:01:52;;;;;;;;;;;;;;;;;;4994795;28;20094;-83
2022/06/10 15:04:17;;;;;;;7.53;0.70;;;;;;;;;;5020139;28;19914;-84
2022/06/10 15:06:45;;;;;;;2.50;0.50;;;;;;;;;;5021869;28;20048;-84
2022/06/10 15:09:10;;;;;;;;;;;;;;;;;;5036252;28;20037;-85
2022/06/10 15:11:36;;;;;;;2.97;0.70;;;;;;;;;;5025605;28;20307;-86
2022/06/10 15:14:02;;;;;;;4.72;0.60;;;;;;;;;;5013531;28;20106;-85
2022/06/10 15:16:27;;;;;;;2.85;0.60;;;;;;;;;;5005668;28;20485;-84
2022/06/10 15:18:53;;;;;;;3.05;1.08;;;;;;;;;;5006414;28;20037;-84
2022/06/10 15:21:22;;;;;;;4.60;1.30;;;;;;;;;;5016401;28;20037;-84
2022/06/10 15:23:49;;;;;;;6.97;2.25;;;;;;;;;;5009400;28;20026;-84
2022/06/10 15:26:20;;;;;;;6.60;1.50;;;;;;;;;;5016146;28;20030;-85
2022/06/10 15:28:46;;;;;;;9.90;3.35;;;;;;;;;;5002348;28;20595;-84
2022/06/10 15:31:11;;;;;;;7.25;2.92;;;;;;;;;;5024814;28;20049;-84
2022/06/10 15:33:37;;;;;;;3.10;0.57;;;;;;;;;;5025293;28;20037;-84
2022/06/10 15:41:40;;;;;;;3.88;0.70;;;;;;;;;;5023096;28;20109;-83
2022/06/10 15:44:25;;;;;;;3.40;0.88;;;;;;;;;;5008406;28;20116;-83
2022/06/10 15:46:51;;;;;;;2.03;0.50;;;;;;;;;;5002950;28;20040;-83